Time;durP1;ratioP1;P1;durP2;ratioP2;P2;SDS_P1;SDS_P2;PMS_P1;PMS_P2;Temp;Humidity;BMP_temperature;BMP_pressure;BME280_temperature;BME280_humidity;BME280_pressure;Samples;Min_cycle;Max_cycle;Signal;HPM_P1;HPM_P2
2021/06/14 00:02:48;;;;;;;7.32;4.57;;;19.30;89.30;;;;;;4864221;29;20064;-91
2021/06/14 00:05:44;;;;;;;12.43;5.25;;;19.20;89.60;;;;;;4859733;29;20057;-91
2021/06/14 00:08:40;;;;;;;10.13;4.50;;;19.20;90.30;;;;;;4868289;29;20062;-90
2021/06/14 00:11:21;;;;;;;6.45;4.50;;;19.20;90.20;;;;;;4872826;29;20049;-90
2021/06/14 00:14:14;;;;;;;9.82;4.10;;;18.10;90.40;;;;;;4866436;29;20065;-88
2021/06/14 00:16:51;;;;;;;7.65;4.25;;;18.30;90.20;;;;;;4863213;29;20045;-90
2021/06/14 00:19:36;;;;;;;11.18;4.65;;;19.00;90.70;;;;;;4857156;29;20071;-90
2021/06/14 00:22:27;;;;;;;7.32;4.28;;;19.00;91.10;;;;;;4889428;29;20054;-90
2021/06/14 00:28:35;;;;;;;8.73;4.90;;;18.90;91.10;;;;;;4875448;29;20061;-90
2021/06/14 00:31:11;;;;;;;8.18;4.45;;;18.90;91.30;;;;;;4858537;29;20055;-90
2021/06/14 00:33:46;;;;;;;6.25;4.45;;;19.00;91.50;;;;;;4883531;29;20060;-91
2021/06/14 00:36:26;;;;;;;8.35;4.00;;;20.50;92.20;;;;;;4883123;29;20056;-91
2021/06/14 00:39:12;;;;;;;13.18;4.38;;;18.80;92.40;;;;;;4892309;29;20056;-89
2021/06/14 00:41:59;;;;;;;10.77;5.18;;;18.70;92.40;;;;;;4890434;29;20060;-89
2021/06/14 00:44:29;;;;;;;9.07;3.78;;;18.50;92.90;;;;;;4880716;29;20060;-89
2021/06/14 00:47:08;;;;;;;12.75;4.82;;;18.40;93.50;;;;;;4891533;29;20049;-89
2021/06/14 00:50:05;;;;;;;9.63;5.07;;;18.40;93.70;;;;;;4882649;29;20064;-91
2021/06/14 00:52:39;;;;;;;11.50;4.45;;;18.50;93.80;;;;;;4892461;29;20044;-88
2021/06/14 00:55:26;;;;;;;12.32;4.60;;;18.40;94.00;;;;;;4885197;29;20056;-89
2021/06/14 00:57:57;;;;;;;11.07;5.35;;;18.40;94.20;;;;;;4883306;29;20054;-89
2021/06/14 01:00:48;;;;;;;8.82;4.82;;;18.30;95.10;;;;;;4909592;29;20062;-90
2021/06/14 01:03:35;;;;;;;11.13;4.53;;;18.20;94.80;;;;;;4886321;29;20048;-91
2021/06/14 01:06:18;;;;;;;8.60;4.93;;;18.10;95.10;;;;;;4896411;29;20052;-90
2021/06/14 01:08:55;;;;;;;12.93;4.97;;;18.10;95.50;;;;;;4895256;29;20068;-90
2021/06/14 01:11:54;;;;;;;11.13;4.10;;;17.90;95.80;;;;;;4892903;29;20041;-89
2021/06/14 01:15:00;;;;;;;20.40;5.28;;;18.10;96.20;;;;;;4886231;29;20049;-92
2021/06/14 01:18:06;;;;;;;11.88;4.63;;;18.10;96.40;;;;;;4899795;29;20057;-91
2021/06/14 01:20:59;;;;;;;11.82;5.00;;;19.30;96.40;;;;;;4885638;29;20049;-90
2021/06/14 01:23:51;;;;;;;11.05;4.45;;;18.40;96.40;;;;;;4891901;29;20062;-90
2021/06/14 01:26:23;;;;;;;10.63;4.80;;;17.10;96.30;;;;;;4890142;29;20060;-90
2021/06/14 01:28:58;;;;;;;9.88;5.63;;;18.10;97.10;;;;;;4894366;29;20049;-90
2021/06/14 01:31:36;;;;;;;7.25;4.45;;;18.10;97.30;;;;;;4891347;29;21090;-89
2021/06/14 01:34:10;;;;;;;11.07;6.30;;;18.00;97.80;;;;;;4879878;29;20059;-89
2021/06/14 01:36:44;;;;;;;9.68;5.03;;;17.90;97.90;;;;;;4894581;29;20060;-89
2021/06/14 01:39:41;;;;;;;9.30;5.05;;;17.90;98.40;;;;;;4902772;29;20053;-90
2021/06/14 01:42:23;;;;;;;8.70;4.85;;;17.80;98.60;;;;;;4879383;29;20509;-90
2021/06/14 01:45:06;;;;;;;7.50;4.85;;;17.70;99.00;;;;;;4879743;29;20041;-89
2021/06/14 01:47:37;;;;;;;8.33;4.17;;;17.70;99.30;;;;;;4879434;29;20057;-90
2021/06/14 01:50:09;;;;;;;9.10;5.25;;;17.70;99.30;;;;;;4895705;29;20311;-88
2021/06/14 01:52:50;;;;;;;11.73;5.70;;;17.80;99.60;;;;;;4883219;29;20041;-90
2021/06/14 01:55:21;;;;;;;9.45;4.45;;;17.70;99.80;;;;;;4883764;29;20064;-90
2021/06/14 01:58:17;;;;;;;13.82;5.80;;;17.70;99.90;;;;;;4864733;29;20045;-89
2021/06/14 02:01:06;;;;;;;13.93;5.88;;;17.70;99.90;;;;;;4877076;29;20076;-89
2021/06/14 02:03:56;;;;;;;8.48;4.95;;;17.60;99.90;;;;;;4871112;29;20048;-89
2021/06/14 02:06:48;;;;;;;9.05;5.65;;;17.50;99.90;;;;;;4869203;29;20052;-90
2021/06/14 02:09:26;;;;;;;8.75;5.68;;;17.20;99.90;;;;;;4905902;29;20052;-89
2021/06/14 02:12:00;;;;;;;9.35;4.60;;;17.50;99.90;;;;;;4906056;29;20052;-89
2021/06/14 02:14:33;;;;;;;9.80;5.10;;;17.50;99.90;;;;;;4865747;29;20057;-88
2021/06/14 02:17:33;;;;;;;10.27;5.45;;;17.60;99.90;;;;;;4915027;29;20063;-89
2021/06/14 02:20:10;;;;;;;10.10;5.22;;;17.50;99.90;;;;;;4862541;29;20044;-90
2021/06/14 02:22:41;;;;;;;9.55;5.47;;;17.50;99.90;;;;;;4886120;29;20056;-89
2021/06/14 02:25:12;;;;;;;8.38;5.22;;;17.50;99.90;;;;;;4882855;29;20060;-89
2021/06/14 02:27:50;;;;;;;12.25;6.68;;;17.40;99.90;;;;;;4869601;29;20049;-88
2021/06/14 02:30:26;;;;;;;7.45;4.72;;;17.40;99.90;;;;;;4876911;29;20072;-89
2021/06/14 02:33:09;;;;;;;9.00;5.30;;;17.30;99.90;;;;;;4896881;29;20044;-88
2021/06/14 02:36:01;;;;;;;11.57;5.63;;;17.30;99.90;;;;;;4882524;29;20052;-88
2021/06/14 02:38:37;;;;;;;10.40;5.32;;;17.30;99.90;;;;;;4897853;29;20052;-90
2021/06/14 02:41:15;;;;;;;11.07;5.47;;;17.40;99.90;;;;;;4879053;29;20064;-89
2021/06/14 02:43:51;;;;;;;7.70;4.82;;;17.40;99.90;;;;;;4904717;29;20302;-90
2021/06/14 02:46:27;;;;;;;7.78;5.60;;;17.40;99.90;;;;;;4883315;29;20048;-88
2021/06/14 02:49:18;;;;;;;12.55;5.45;;;17.40;99.90;;;;;;4911122;29;20045;-89
2021/06/14 02:52:08;;;;;;;9.32;5.30;;;15.80;99.90;;;;;;4880293;29;20056;-87
2021/06/14 02:55:03;;;;;;;12.18;5.55;;;17.40;99.90;;;;;;4905856;23;20037;-89
2021/06/14 02:57:51;;;;;;;11.73;5.45;;;17.40;99.90;;;;;;4945593;29;20055;-89
2021/06/14 03:00:28;;;;;;;13.98;7.55;;;17.40;99.90;;;;;;4940215;29;20062;-87
2021/06/14 03:03:11;;;;;;;20.13;7.28;;;17.40;99.90;;;;;;4932543;29;20056;-89
2021/06/14 03:05:46;;;;;;;8.80;5.60;;;17.30;99.90;;;;;;4917109;29;20050;-89
2021/06/14 03:08:23;;;;;;;10.77;6.07;;;17.30;99.90;;;;;;4881024;29;20059;-90
2021/06/14 03:11:03;;;;;;;10.57;4.88;;;17.20;99.90;;;;;;4909895;29;20060;-87
2021/06/14 03:13:45;;;;;;;8.80;5.60;;;17.20;99.90;;;;;;4909472;29;20063;-88
2021/06/14 03:16:37;;;;;;;11.90;6.57;;;17.20;99.90;;;;;;4942178;29;20060;-89
2021/06/14 03:19:11;;;;;;;13.00;6.38;;;17.30;99.90;;;;;;4924465;29;20063;-93
2021/06/14 03:21:45;;;;;;;15.77;6.97;;;17.30;99.90;;;;;;4929061;29;20130;-89
2021/06/14 03:24:24;;;;;;;12.98;7.03;;;17.20;99.90;;;;;;4909067;29;20063;-88
2021/06/14 03:27:05;;;;;;;11.93;6.88;;;17.20;99.90;;;;;;4906186;29;20043;-90
2021/06/14 03:30:03;;;;;;;10.07;6.00;;;17.60;99.90;;;;;;4902969;29;20074;-88
2021/06/14 03:32:40;;;;;;;13.85;5.65;;;17.10;99.90;;;;;;4945296;29;20065;-88
2021/06/14 03:35:45;;;;;;;13.57;6.25;;;17.10;99.90;;;;;;4940563;29;20063;-89
2021/06/14 03:38:33;;;;;;;12.05;6.05;;;17.10;99.90;;;;;;4946196;29;20070;-88
2021/06/14 03:41:15;;;;;;;13.70;5.85;;;17.20;99.90;;;;;;4919290;29;20055;-89
2021/06/14 03:43:52;;;;;;;11.88;6.63;;;17.40;99.90;;;;;;4929303;29;20048;-90
2021/06/14 03:46:27;;;;;;;12.15;7.05;;;17.20;99.90;;;;;;4909150;29;20065;-88
2021/06/14 03:49:12;;;;;;;11.32;6.30;;;17.20;99.90;;;;;;4909032;29;20420;-87
2021/06/14 03:51:44;;;;;;;12.73;5.70;;;17.10;99.90;;;;;;4921970;29;20051;-89
2021/06/14 03:54:17;;;;;;;11.68;5.47;;;17.20;99.90;;;;;;4918018;29;20054;-91
2021/06/14 03:56:52;;;;;;;8.90;5.97;;;17.10;99.90;;;;;;4930702;29;20055;-91
2021/06/14 03:59:33;;;;;;;11.52;5.82;;;17.20;99.90;;;;;;4928793;29;20058;-88
2021/06/14 04:02:08;;;;;;;13.38;6.53;;;17.10;99.90;;;;;;4934148;29;20048;-89
2021/06/14 04:07:59;;;;;;;9.68;5.35;;;17.20;99.90;;;;;;4854791;29;20069;-89
2021/06/14 04:10:39;;;;;;;;;;;17.30;99.90;;;;;;4903991;29;20068;-90
2021/06/14 04:13:19;;;;;;;15.70;6.53;;;17.40;99.90;;;;;;4942424;29;19933;-89
2021/06/14 04:16:01;;;;;;;17.13;7.13;;;16.70;99.90;;;;;;4932841;29;20301;-89
2021/06/14 04:19:08;;;;;;;15.00;7.50;;;17.30;99.90;;;;;;4911202;29;20052;-89
2021/06/14 04:21:39;;;;;;;10.13;6.05;;;17.30;99.90;;;;;;4906805;29;20061;-89
2021/06/14 04:24:11;;;;;;;13.63;6.55;;;17.40;99.90;;;;;;4916395;29;20044;-89
2021/06/14 04:26:45;;;;;;;11.10;6.35;;;18.10;99.90;;;;;;4921453;29;20055;-90
2021/06/14 04:29:29;;;;;;;12.60;6.97;;;17.40;99.90;;;;;;4898609;29;20054;-89
2021/06/14 04:32:08;;;;;;;12.25;5.90;;;17.40;99.90;;;;;;4950216;29;20051;-89
2021/06/14 04:34:49;;;;;;;12.98;6.50;;;17.40;99.90;;;;;;4922446;29;20055;-89
2021/06/14 04:37:22;;;;;;;17.58;7.10;;;17.40;99.90;;;;;;4927472;29;20055;-89
2021/06/14 04:40:01;;;;;;;12.13;6.38;;;17.30;99.90;;;;;;4913817;29;20048;-88
2021/06/14 04:42:47;;;;;;;14.13;6.78;;;17.40;99.90;;;;;;4932118;29;20043;-88
2021/06/14 04:45:20;;;;;;;14.68;6.57;;;17.30;99.90;;;;;;4880531;29;20058;-89
2021/06/14 04:48:10;;;;;;;13.13;6.60;;;16.20;99.90;;;;;;4916787;29;20137;-87
2021/06/14 04:50:45;;;;;;;14.35;5.78;;;17.40;99.90;;;;;;4918970;29;20058;-89
2021/06/14 04:53:45;;;;;;;12.13;6.05;;;17.60;99.90;;;;;;4903441;29;20060;-88
2021/06/14 04:56:14;;;;;;;12.63;6.82;;;17.60;99.90;;;;;;4902490;29;20058;-89
2021/06/14 04:58:51;;;;;;;10.82;6.22;;;17.60;99.90;;;;;;4915217;29;20058;-87
2021/06/14 05:01:32;;;;;;;11.23;5.60;;;17.60;99.90;;;;;;4912204;29;20075;-89
2021/06/14 05:04:24;;;;;;;14.05;6.03;;;17.70;99.90;;;;;;4930127;29;20064;-90
2021/06/14 05:07:07;;;;;;;12.70;6.53;;;17.80;99.90;;;;;;4916174;29;20067;-89
2021/06/14 05:09:48;;;;;;;11.20;6.33;;;17.90;99.90;;;;;;4930634;29;20044;-93
2021/06/14 05:12:19;;;;;;;11.00;5.45;;;17.90;99.90;;;;;;4896256;29;20039;-89
2021/06/14 05:15:20;;;;;;;16.52;6.00;;;18.00;99.90;;;;;;4922274;29;20047;-89
2021/06/14 05:18:09;;;;;;;15.20;6.10;;;18.20;99.90;;;;;;4890757;29;20044;-89
2021/06/14 05:21:01;;;;;;;10.10;5.13;;;18.10;99.90;;;;;;4935746;29;20052;-91
2021/06/14 05:24:19;;;;;;;13.90;5.93;;;18.30;99.90;;;;;;4941094;29;20057;-90
2021/06/14 05:27:05;;;;;;;10.40;5.45;;;18.30;99.90;;;;;;4922274;29;20048;-89
2021/06/14 05:29:50;;;;;;;11.70;6.00;;;18.40;99.90;;;;;;4905809;29;20038;-89
2021/06/14 05:32:39;;;;;;;19.15;6.07;;;18.50;99.90;;;;;;4921153;29;20056;-88
2021/06/14 05:36:04;;;;;;;15.25;6.13;;;18.50;99.90;;;;;;4901970;29;20056;-90
2021/06/14 05:39:06;;;;;;;13.45;6.07;;;18.60;99.90;;;;;;4915293;29;20067;-89
2021/06/14 05:41:49;;;;;;;12.73;5.78;;;18.60;99.90;;;;;;4932225;29;20049;-90
2021/06/14 05:44:48;;;;;;;12.55;6.00;;;18.80;99.90;;;;;;4919128;29;20062;-90
2021/06/14 05:47:58;;;;;;;15.60;6.00;;;18.80;99.90;;;;;;4929378;29;20067;-90
2021/06/14 05:50:58;;;;;;;14.77;6.80;;;18.90;99.90;;;;;;4902364;29;20061;-90
2021/06/14 05:53:54;;;;;;;15.05;8.05;;;18.90;99.90;;;;;;4897150;29;20044;-90
2021/06/14 05:57:07;;;;;;;17.58;8.77;;;19.00;99.90;;;;;;4934512;29;20062;-90
2021/06/14 06:00:23;;;;;;;20.65;8.90;;;19.20;99.90;;;;;;4934478;29;20052;-90
2021/06/14 06:03:29;;;;;;;19.13;6.65;;;19.20;99.90;;;;;;4915366;29;20056;-88
2021/06/14 06:06:37;;;;;;;14.27;7.05;;;19.30;99.90;;;;;;4914741;29;20519;-87
2021/06/14 06:09:52;;;;;;;14.85;6.50;;;19.20;99.90;;;;;;4921536;29;20380;-90
2021/06/14 06:12:45;;;;;;;14.95;5.65;;;19.40;99.90;;;;;;4968983;23;20044;-87
2021/06/14 06:15:25;;;;;;;11.25;4.47;;;19.50;99.90;;;;;;4925626;29;20051;-87
2021/06/14 06:18:04;;;;;;;12.55;5.68;;;19.50;99.90;;;;;;4915121;29;20052;-88
2021/06/14 06:20:51;;;;;;;9.65;4.63;;;19.60;99.90;;;;;;4922791;29;20063;-87
2021/06/14 06:23:23;;;;;;;14.57;5.32;;;19.60;99.90;;;;;;4927868;29;20060;-87
2021/06/14 06:25:53;;;;;;;15.48;5.22;;;19.70;99.90;;;;;;4885101;29;20062;-87
2021/06/14 06:28:35;;;;;;;9.77;4.90;;;19.80;99.90;;;;;;4930376;29;20044;-87
2021/06/14 06:31:21;;;;;;;14.25;5.57;;;20.10;99.90;;;;;;4897586;29;20043;-87
2021/06/14 06:33:55;;;;;;;7.50;5.10;;;20.00;99.90;;;;;;4934398;29;20440;-87
2021/06/14 06:36:36;;;;;;;9.95;5.15;;;20.00;99.90;;;;;;4906862;29;20059;-87
2021/06/14 06:39:49;;;;;;;15.10;7.82;;;20.00;99.90;;;;;;4922988;29;20047;-87
2021/06/14 06:42:24;;;;;;;18.30;6.88;;;20.10;99.90;;;;;;4911813;29;20056;-87
2021/06/14 06:45:00;;;;;;;25.83;7.35;;;19.40;99.90;;;;;;4886603;29;20056;-88
2021/06/14 06:47:35;;;;;;;12.50;5.95;;;20.20;99.90;;;;;;4931236;29;20055;-86
2021/06/14 06:50:10;;;;;;;10.60;5.65;;;20.30;99.90;;;;;;4916144;29;20052;-86
2021/06/14 06:52:49;;;;;;;11.63;5.10;;;20.40;99.90;;;;;;4931011;29;20058;-88
2021/06/14 06:55:50;;;;;;;13.05;5.43;;;20.50;99.90;;;;;;4919789;29;20048;-86
2021/06/14 06:58:49;;;;;;;11.93;5.07;;;20.50;99.90;;;;;;4901065;29;20051;-86
2021/06/14 07:01:24;;;;;;;13.75;5.88;;;20.60;99.90;;;;;;4901604;29;20709;-87
2021/06/14 07:03:55;;;;;;;13.88;5.60;;;20.70;99.90;;;;;;4903624;29;20060;-88
2021/06/14 07:06:25;;;;;;;16.58;6.35;;;20.80;99.90;;;;;;4868353;29;20048;-88
2021/06/14 07:09:00;;;;;;;16.60;8.18;;;20.80;99.70;;;;;;4879184;29;20052;-88
2021/06/14 07:11:34;;;;;;;11.15;6.95;;;20.70;99.60;;;;;;4898044;29;20238;-87
2021/06/14 07:14:10;;;;;;;11.95;6.63;;;20.90;99.70;;;;;;4920196;29;20048;-87
2021/06/14 07:16:44;;;;;;;15.00;6.40;;;20.90;99.60;;;;;;4906588;29;20044;-88
2021/06/14 07:19:14;;;;;;;25.15;8.20;;;20.90;99.40;;;;;;4889689;29;20043;-89
2021/06/14 07:21:50;;;;;;;17.35;6.38;;;21.00;99.20;;;;;;4879435;29;20052;-87
2021/06/14 07:24:21;;;;;;;14.15;6.28;;;21.10;99.30;;;;;;4908922;29;20059;-87
2021/06/14 07:27:12;;;;;;;17.77;6.32;;;21.10;99.20;;;;;;4896119;29;20060;-88
2021/06/14 07:29:54;;;;;;;13.32;6.45;;;21.20;99.10;;;;;;4881092;29;20068;-88
2021/06/14 07:32:29;;;;;;;10.55;5.90;;;21.20;99.40;;;;;;4906759;29;20223;-88
2021/06/14 07:35:04;;;;;;;13.65;6.45;;;21.30;99.30;;;;;;4913002;29;20252;-87
2021/06/14 07:37:41;;;;;;;16.85;6.88;;;21.30;99.00;;;;;;4893514;29;20063;-89
2021/06/14 07:40:27;;;;;;;16.58;5.50;;;21.40;98.80;;;;;;4918546;29;20056;-89
2021/06/14 07:43:05;;;;;;;17.70;7.00;;;21.50;98.70;;;;;;4900000;29;20062;-89
2021/06/14 07:45:35;;;;;;;12.70;6.75;;;21.60;98.60;;;;;;4893830;29;20056;-86
2021/06/14 07:48:11;;;;;;;14.57;7.85;;;21.60;98.40;;;;;;4897553;29;20060;-88
2021/06/14 07:50:56;;;;;;;14.77;6.10;;;21.70;98.40;;;;;;4903079;29;20170;-88
2021/06/14 07:53:29;;;;;;;15.93;6.60;;;21.80;98.00;;;;;;4916478;29;20063;-88
2021/06/14 07:56:45;;;;;;;12.80;6.30;;;21.80;98.10;;;;;;4894097;29;20044;-89
2021/06/14 07:59:24;;;;;;;14.85;6.22;;;22.10;97.80;;;;;;4938874;29;20058;-89
2021/06/14 08:01:59;;;;;;;15.30;6.05;;;21.50;97.90;;;;;;4941815;29;20040;-87
2021/06/14 08:04:36;;;;;;;13.80;5.07;;;22.00;98.20;;;;;;4905932;29;20060;-87
2021/06/14 08:08:06;;;;;;;15.55;6.50;;;22.00;97.60;;;;;;4901743;29;20047;-88
2021/06/14 08:10:56;;;;;;;12.00;6.20;;;22.10;97.50;;;;;;4898306;29;20060;-87
2021/06/14 08:13:45;;;;;;;;;;;;;;;;;;;;;
2021/06/14 08:16:50;;;;;;;12.88;5.57;;;22.20;97.40;;;;;;4917621;29;20063;-90
2021/06/14 08:26:27;;;;;;;12.73;4.70;;;22.60;96.50;;;;;;4925776;29;20059;-89
2021/06/14 08:29:09;;;;;;;15.57;5.60;;;22.60;96.60;;;;;;4896139;29;20053;-89
2021/06/14 08:31:55;;;;;;;10.65;5.60;;;22.70;96.50;;;;;;4884652;29;20049;-89
2021/06/14 08:34:43;;;;;;;8.63;4.53;;;22.70;96.10;;;;;;4892820;29;20568;-89
2021/06/14 08:37:52;;;;;;;11.07;4.50;;;22.80;95.90;;;;;;4877014;29;20045;-89
2021/06/14 08:40:55;;;;;;;10.32;4.72;;;22.90;95.40;;;;;;4921837;29;20060;-89
2021/06/14 08:44:14;;;;;;;;;;;22.80;95.30;;;;;;4861521;29;20072;-89
2021/06/14 08:46:58;;;;;;;12.30;4.50;;;23.10;95.40;;;;;;4880833;29;19934;-89
2021/06/14 08:49:42;;;;;;;12.13;4.30;;;23.10;95.60;;;;;;4877786;29;20053;-89
2021/06/14 08:52:14;;;;;;;9.25;4.18;;;23.20;95.20;;;;;;4876670;29;20061;-88
2021/06/14 08:54:51;;;;;;;8.95;4.47;;;23.20;94.90;;;;;;4890226;29;20056;-90
2021/06/14 08:57:29;;;;;;;12.10;4.00;;;23.20;94.50;;;;;;4859987;29;20532;-89
2021/06/14 09:00:15;;;;;;;10.02;3.97;;;23.30;94.20;;;;;;4897196;29;20044;-89
2021/06/14 09:02:55;;;;;;;8.40;3.65;;;22.60;93.80;;;;;;4909444;29;20044;-87
2021/06/14 09:05:39;;;;;;;11.75;3.78;;;23.60;94.10;;;;;;4900080;29;20059;-87
2021/06/14 09:08:22;;;;;;;14.23;3.63;;;23.60;93.50;;;;;;4905011;29;20056;-87
2021/06/14 09:10:59;;;;;;;9.20;3.78;;;23.70;93.90;;;;;;4870605;29;20057;-87
2021/06/14 09:13:32;;;;;;;9.57;4.30;;;23.80;93.30;;;;;;4877496;29;20057;-89
2021/06/14 09:16:09;;;;;;;14.52;4.47;;;23.90;92.90;;;;;;4911037;29;20049;-89
2021/06/14 09:18:43;;;;;;;18.17;4.82;;;24.00;92.30;;;;;;4887662;29;20055;-88
2021/06/14 09:21:31;;;;;;;9.43;2.97;;;24.10;92.20;;;;;;4889797;29;20048;-88
2021/06/14 09:24:13;;;;;;;8.60;3.37;;;24.20;91.00;;;;;;4887334;29;20056;-86
2021/06/14 09:26:46;;;;;;;6.20;3.15;;;24.20;90.50;;;;;;4873818;29;20052;-88
2021/06/14 09:29:26;;;;;;;5.40;3.08;;;24.30;89.70;;;;;;4901621;29;20052;-88
2021/06/14 09:32:04;;;;;;;4.88;2.40;;;24.30;85.70;;;;;;4886001;29;20056;-88
2021/06/14 09:34:41;;;;;;;6.68;3.53;;;24.40;84.20;;;;;;4907027;29;20068;-92
2021/06/14 09:37:26;;;;;;;7.97;2.60;;;24.50;84.10;;;;;;4902442;29;20053;-90
2021/06/14 09:40:10;;;;;;;6.90;2.70;;;24.50;84.50;;;;;;4940122;23;20062;-90
2021/06/14 09:42:52;;;;;;;10.07;3.60;;;24.50;84.30;;;;;;4902717;29;20056;-89
2021/06/14 09:45:30;;;;;;;7.07;2.72;;;24.60;85.10;;;;;;4902855;29;20037;-91
2021/06/14 09:48:00;;;;;;;8.02;2.72;;;24.70;83.30;;;;;;4917607;29;20062;-90
2021/06/14 09:50:35;;;;;;;6.97;2.92;;;24.90;82.00;;;;;;4900934;29;20055;-89
2021/06/14 09:53:23;;;;;;;;;;;24.90;80.40;;;;;;4899150;29;20052;-89
2021/06/14 09:55:54;;;;;;;14.05;4.15;;;25.00;80.30;;;;;;4905114;29;19924;-90
2021/06/14 09:58:28;;;;;;;4.50;2.63;;;25.00;79.70;;;;;;4904504;29;20053;-89
2021/06/14 10:01:12;;;;;;;5.72;2.50;;;25.10;79.60;;;;;;4901769;29;20062;-89
2021/06/14 10:03:46;;;;;;;5.47;2.75;;;25.20;78.90;;;;;;4905989;29;20074;-88
2021/06/14 10:06:36;;;;;;;5.28;2.38;;;25.20;79.80;;;;;;4901956;29;20048;-90
2021/06/14 10:09:15;;;;;;;6.35;2.58;;;25.40;79.10;;;;;;4927599;29;20055;-90
2021/06/14 10:11:49;;;;;;;7.87;2.87;;;25.40;78.80;;;;;;4917198;29;20048;-89
2021/06/14 10:14:24;;;;;;;5.32;2.90;;;25.60;79.10;;;;;;4903750;29;20052;-89
2021/06/14 10:17:04;;;;;;;5.28;2.97;;;25.60;79.10;;;;;;4894414;29;20045;-90
2021/06/14 10:19:38;;;;;;;4.88;2.40;;;25.70;78.90;;;;;;4907480;29;20052;-88
2021/06/14 10:22:13;;;;;;;11.38;4.45;;;25.70;77.70;;;;;;4906288;29;20071;-89
2021/06/14 10:24:43;;;;;;;5.15;2.28;;;25.70;77.40;;;;;;4901387;29;20154;-90
2021/06/14 10:27:15;;;;;;;6.75;2.28;;;25.80;78.00;;;;;;4906864;29;20072;-90
2021/06/14 10:29:46;;;;;;;6.53;2.65;;;25.80;77.90;;;;;;4913947;29;20045;-89
2021/06/14 10:32:24;;;;;;;8.57;3.58;;;25.90;77.70;;;;;;4883289;29;20052;-90
2021/06/14 10:35:09;;;;;;;7.32;2.80;;;25.90;77.20;;;;;;4929310;29;20552;-90
2021/06/14 10:38:05;;;;;;;8.60;2.83;;;26.00;77.30;;;;;;4909018;29;20055;-89
2021/06/14 10:40:45;;;;;;;6.43;1.83;;;26.00;77.30;;;;;;4924556;29;20035;-89
2021/06/14 10:43:24;;;;;;;6.93;2.13;;;26.30;76.50;;;;;;4911973;29;20060;-89
2021/06/14 10:46:00;;;;;;;7.40;2.80;;;26.10;76.10;;;;;;4954083;23;20034;-89
2021/06/14 10:48:46;;;;;;;6.13;2.45;;;26.30;77.50;;;;;;4932143;29;20055;-89
2021/06/14 10:51:45;;;;;;;10.10;3.00;;;26.30;77.80;;;;;;4902814;29;20055;-90
2021/06/14 10:55:12;;;;;;;7.18;2.50;;;25.60;77.90;;;;;;4920819;29;20058;-90
2021/06/14 10:58:22;;;;;;;4.00;2.20;;;26.50;78.50;;;;;;4921386;29;20057;-90
2021/06/14 11:01:02;;;;;;;10.45;2.40;;;27.20;77.80;;;;;;4871730;29;20056;-90
2021/06/14 11:03:50;;;;;;;7.20;2.45;;;26.60;77.30;;;;;;4918880;29;20052;-89
2021/06/14 11:06:33;;;;;;;8.93;3.88;;;26.70;78.20;;;;;;4901938;29;20049;-89
2021/06/14 11:09:24;;;;;;;31.92;7.03;;;26.80;77.30;;;;;;4886834;29;20063;-90
2021/06/14 11:12:10;;;;;;;8.95;4.00;;;26.90;76.70;;;;;;4880714;29;20053;-91
2021/06/14 11:14:44;;;;;;;63.20;11.35;;;27.00;76.60;;;;;;4924718;29;20054;-90
2021/06/14 11:17:47;;;;;;;35.45;6.60;;;27.20;76.70;;;;;;4873636;29;20037;-90
2021/06/14 11:20:39;;;;;;;8.90;3.22;;;27.20;76.30;;;;;;4898674;29;20060;-90
2021/06/14 11:23:29;;;;;;;32.08;7.05;;;27.30;76.50;;;;;;4902916;29;20958;-90
2021/06/14 11:26:27;;;;;;;19.38;2.53;;;27.30;76.50;;;;;;4882432;29;20049;-92
2021/06/14 11:29:23;;;;;;;4.95;1.98;;;27.30;76.50;;;;;;4916338;29;20051;-90
2021/06/14 11:32:09;;;;;;;5.82;2.72;;;27.50;76.30;;;;;;4880837;29;20068;-90
2021/06/14 11:34:59;;;;;;;6.55;2.78;;;27.60;77.00;;;;;;4909581;29;20061;-90
2021/06/14 11:37:54;;;;;;;7.95;3.05;;;28.30;76.70;;;;;;4905245;29;20075;-89
2021/06/14 11:40:31;;;;;;;7.15;2.70;;;29.10;76.90;;;;;;4892843;29;20052;-89
2021/06/14 11:43:14;;;;;;;;;;;28.10;75.80;;;;;;5023961;23;20064;-88
2021/06/14 11:46:19;;;;;;;4.75;2.20;;;28.20;75.70;;;;;;4902168;29;19934;-88
2021/06/14 11:49:09;;;;;;;4.20;2.20;;;28.30;75.60;;;;;;4891654;29;20058;-89
2021/06/14 11:51:58;;;;;;;9.38;2.70;;;28.50;75.80;;;;;;4918281;29;20054;-90
2021/06/14 11:54:40;;;;;;;7.72;3.05;;;28.50;75.40;;;;;;4907527;29;20049;-88
2021/06/14 11:57:23;;;;;;;8.98;3.20;;;28.50;75.30;;;;;;4877283;29;20050;-89
2021/06/14 12:00:25;;;;;;;25.30;4.65;;;28.50;75.10;;;;;;4879854;29;20520;-88
2021/06/14 12:02:53;;;;;;;8.18;2.88;;;28.60;75.10;;;;;;4892542;29;20053;-88
2021/06/14 12:05:36;;;;;;;8.95;4.05;;;28.60;75.50;;;;;;4875698;29;20053;-84
2021/06/14 12:08:07;;;;;;;12.93;3.45;;;28.80;75.90;;;;;;4878587;29;20053;-85
2021/06/14 12:10:58;;;;;;;5.45;2.72;;;29.00;75.80;;;;;;4881772;29;20524;-84
2021/06/14 12:13:40;;;;;;;4.40;3.33;;;29.10;75.10;;;;;;4875055;29;20040;-91
2021/06/14 12:17:01;;;;;;;11.88;2.80;;;29.30;74.70;;;;;;4878782;29;20056;-89
2021/06/14 12:19:35;;;;;;;6.43;3.00;;;29.50;74.20;;;;;;4882055;29;20056;-89
2021/06/14 12:22:19;;;;;;;7.70;2.30;;;29.70;74.50;;;;;;4891020;29;20056;-88
2021/06/14 12:25:02;;;;;;;21.30;4.63;;;29.40;73.80;;;;;;4893581;29;20068;-89
2021/06/14 12:28:05;;;;;;;8.48;3.08;;;30.90;74.30;;;;;;4903140;29;20059;-90
2021/06/14 12:31:25;;;;;;;8.95;3.67;;;29.90;72.80;;;;;;4899629;29;20060;-89
2021/06/14 12:34:05;;;;;;;12.30;3.78;;;29.80;72.70;;;;;;4887677;29;20053;-89
2021/06/14 12:36:42;;;;;;;10.07;2.97;;;29.80;73.10;;;;;;4890621;29;20049;-89
2021/06/14 12:39:18;;;;;;;12.07;2.90;;;30.00;73.20;;;;;;4878191;29;20084;-90
2021/06/14 12:42:46;;;;;;;11.73;2.85;;;30.10;72.70;;;;;;5084097;23;20051;-93
2021/06/14 13:35:06;;;;;;;11.27;3.50;;;32.00;65.40;;;;;;5713823;23;20030;-94
2021/06/14 13:45:18;;;;;;;7.28;3.38;;;32.60;64.60;;;;;;4918258;29;20264;-94
2021/06/14 13:52:42;;;;;;;4.07;2.20;;;33.00;62.70;;;;;;4916326;29;20493;-94
2021/06/14 13:55:34;;;;;;;6.90;3.08;;;33.40;61.90;;;;;;4907641;29;20065;-92
2021/06/14 14:01:40;;;;;;;8.40;2.78;;;34.00;61.30;;;;;;4973148;23;20063;-89
2021/06/14 14:04:25;;;;;;;5.65;2.03;;;34.30;60.90;;;;;;4879906;29;20056;-92
2021/06/14 14:07:09;;;;;;;20.25;3.40;;;34.30;59.30;;;;;;4929886;29;20047;-92
2021/06/14 14:10:03;;;;;;;5.43;2.55;;;34.30;60.20;;;;;;4932040;29;20044;-91
2021/06/14 14:12:52;;;;;;;6.75;3.15;;;33.50;58.80;;;;;;4905235;29;20039;-93
2021/06/14 14:18:33;;;;;;;7.80;2.33;;;35.10;58.60;;;;;;4910095;29;20055;-92
2021/06/14 14:21:29;;;;;;;9.00;2.05;;;35.40;58.40;;;;;;4903533;29;20040;-92
2021/06/14 14:24:20;;;;;;;5.20;2.20;;;35.70;58.00;;;;;;4892136;29;20052;-93
2021/06/14 14:27:31;;;;;;;7.25;2.58;;;36.20;57.10;;;;;;4893633;29;20048;-92
2021/06/14 14:30:30;;;;;;;5.07;1.70;;;36.50;55.50;;;;;;4928500;23;20045;-91
2021/06/14 14:33:21;;;;;;;7.38;2.33;;;36.20;55.40;;;;;;4875578;29;20052;-92
2021/06/14 14:36:16;;;;;;;7.80;1.65;;;35.60;54.80;;;;;;4908984;29;20025;-89
2021/06/14 14:39:02;;;;;;;4.22;2.00;;;35.10;55.70;;;;;;4905012;29;20060;-92
2021/06/14 14:41:33;;;;;;;5.72;1.67;;;34.40;56.10;;;;;;4895391;29;20063;-89
2021/06/14 14:44:18;;;;;;;7.53;2.50;;;34.00;57.10;;;;;;4897282;29;20052;-89
2021/06/14 14:46:55;;;;;;;5.55;2.28;;;33.60;57.00;;;;;;4886209;29;20045;-90
2021/06/14 14:49:27;;;;;;;8.93;1.55;;;33.40;57.60;;;;;;4893353;29;20060;-89
2021/06/14 14:52:13;;;;;;;5.70;2.00;;;33.30;57.80;;;;;;4889783;29;20055;-90
2021/06/14 14:55:02;;;;;;;5.55;2.00;;;33.30;57.20;;;;;;4879183;29;20044;-91
2021/06/14 14:58:08;;;;;;;14.77;2.10;;;33.20;57.60;;;;;;4898550;29;20048;-90
2021/06/14 15:00:50;;;;;;;4.00;1.83;;;32.90;58.20;;;;;;4901884;29;20088;-91
2021/06/14 15:03:25;;;;;;;7.90;2.38;;;32.50;59.50;;;;;;4890876;29;20052;-90
2021/06/14 15:06:08;;;;;;;3.55;1.98;;;32.30;59.30;;;;;;4878706;29;20674;-89
2021/06/14 15:08:59;;;;;;;3.88;1.20;;;32.00;59.80;;;;;;4905235;29;20052;-88
2021/06/14 15:11:42;;;;;;;6.32;1.40;;;31.70;59.50;;;;;;4893293;29;20053;-89
2021/06/14 15:14:16;;;;;;;4.28;1.38;;;31.60;60.00;;;;;;4887942;29;20052;-90
2021/06/14 15:16:59;;;;;;;3.47;1.30;;;31.50;59.70;;;;;;4897164;29;20041;-89
2021/06/14 15:19:59;;;;;;;2.63;1.03;;;31.70;60.40;;;;;;4899611;29;20140;-89
2021/06/14 15:23:00;;;;;;;5.72;1.90;;;31.80;59.90;;;;;;4876424;29;20292;-91
2021/06/14 15:25:38;;;;;;;2.53;1.30;;;31.90;60.10;;;;;;4910952;29;20087;-90
2021/06/14 15:28:25;;;;;;;7.88;1.38;;;31.70;60.30;;;;;;4873743;29;20118;-90
2021/06/14 15:30:57;;;;;;;6.07;1.40;;;31.70;60.70;;;;;;4872673;29;20531;-90
2021/06/14 15:33:39;;;;;;;3.47;1.43;;;31.10;60.80;;;;;;4895900;29;20508;-88
2021/06/14 15:36:18;;;;;;;3.67;1.45;;;31.30;61.30;;;;;;4898191;29;20053;-90